createdAt,value
2019-04-01T00:01:30.382Z,9.67
2019-04-01T00:05:37.068Z,9.37
2019-04-01T00:09:43.791Z,10.23
2019-04-01T00:13:50.427Z,10.87
2019-04-01T00:17:58.283Z,10.60
2019-04-01T00:22:04.994Z,9.03
2019-04-01T00:26:11.711Z,10.30
2019-04-01T00:30:18.565Z,9.77
2019-04-01T00:34:25.271Z,9.37
2019-04-01T00:38:32.013Z,10.53
2019-04-01T00:42:46.688Z,9.07
2019-04-01T00:46:54.455Z,9.87
2019-04-01T00:51:01.176Z,11.10
2019-04-01T00:55:08.022Z,9.63
2019-04-01T00:59:14.673Z,10.73
2019-04-01T01:03:21.309Z,10.73
2019-04-01T01:07:28.012Z,11.00
2019-04-01T01:11:34.826Z,11.93
2019-04-01T01:15:41.634Z,10.73
2019-04-01T01:19:48.298Z,11.53
2019-04-01T01:23:55.054Z,11.03
2019-04-01T01:28:02.914Z,11.47
2019-04-01T01:32:09.665Z,11.37
2019-04-01T01:36:16.427Z,12.90
2019-04-01T01:40:23.207Z,11.53
2019-04-01T01:44:30.177Z,10.53
2019-04-01T01:48:37.004Z,9.97
2019-04-01T01:52:43.851Z,9.77
2019-04-01T01:56:50.651Z,10.10
2019-04-01T02:00:58.496Z,9.87
2019-04-01T02:05:05.686Z,9.93
2019-04-01T02:09:13.497Z,9.80
2019-04-01T02:13:20.359Z,9.70
2019-04-01T02:17:26.978Z,9.70
2019-04-01T02:21:33.715Z,9.93
2019-04-01T02:25:40.391Z,9.73
2019-04-01T02:29:47.175Z,9.73
2019-04-01T02:33:53.975Z,9.57
2019-04-01T02:38:00.693Z,8.53
2019-04-01T02:42:07.574Z,8.97
2019-04-01T02:46:14.381Z,9.27
2019-04-01T02:50:21.122Z,9.20
2019-04-01T02:54:27.855Z,9.37
2019-04-01T02:58:34.656Z,8.80
2019-04-01T03:02:41.392Z,8.87
2019-04-01T03:06:48.132Z,9.00
2019-04-01T03:10:54.871Z,9.33
2019-04-01T03:15:01.551Z,9.37
2019-04-01T03:19:08.310Z,9.40
2019-04-01T03:23:15.040Z,9.33
2019-04-01T03:27:21.687Z,10.30
2019-04-01T03:31:28.420Z,9.57
2019-04-01T03:35:35.228Z,8.90
2019-04-01T03:39:41.958Z,9.33
2019-04-01T03:43:48.741Z,8.83
2019-04-01T03:47:55.424Z,9.10
2019-04-01T03:52:02.058Z,8.60
2019-04-01T03:56:08.896Z,8.67
2019-04-01T04:00:16.015Z,8.80
2019-04-01T04:04:22.761Z,8.57
2019-04-01T04:08:29.427Z,8.83
2019-04-01T04:12:36.192Z,8.97
2019-04-01T04:16:43.110Z,9.10
2019-04-01T04:20:50.049Z,8.73
2019-04-01T04:24:56.982Z,9.47
2019-04-01T04:29:03.848Z,9.20
2019-04-01T04:33:12.655Z,9.13
2019-04-01T04:37:19.474Z,9.27
2019-04-01T04:41:27.896Z,10.10
2019-04-01T04:45:34.883Z,9.47
2019-04-01T04:49:41.877Z,9.70
2019-04-01T04:53:48.659Z,9.80
2019-04-01T04:57:55.570Z,9.73
2019-04-01T05:02:02.730Z,9.40
2019-04-01T05:06:09.736Z,10.10
2019-04-01T05:10:16.715Z,9.93
2019-04-01T05:14:23.495Z,9.00
2019-04-01T05:18:30.303Z,9.10
2019-04-01T05:22:38.462Z,8.60
2019-04-01T05:26:47.974Z,9.10
2019-04-01T05:30:58.749Z,9.07
2019-04-01T05:35:07.387Z,8.37
2019-04-01T05:39:14.124Z,8.47
2019-04-01T05:43:21.054Z,8.93
2019-04-01T05:47:43.592Z,8.40
2019-04-01T05:51:50.717Z,7.93
2019-04-01T05:55:58.268Z,8.73
2019-04-01T06:00:05.960Z,8.23
2019-04-01T06:04:13.028Z,8.27
2019-04-01T06:08:19.758Z,8.27
2019-04-01T06:12:26.474Z,8.27
2019-04-01T06:16:33.537Z,7.80
2019-04-01T06:20:40.319Z,7.90
2019-04-01T06:24:47.013Z,6.87
2019-04-01T06:28:53.913Z,7.33
2019-04-01T06:33:00.882Z,7.17
2019-04-01T06:37:08.147Z,7.27
2019-04-01T06:41:15.056Z,7.07
2019-04-01T06:45:35.126Z,7.20
2019-04-01T06:49:41.917Z,7.13
2019-04-01T06:53:48.701Z,6.30
2019-04-01T06:57:55.941Z,7.10
2019-04-01T07:02:02.745Z,7.20
2019-04-01T07:06:09.469Z,6.90
2019-04-01T07:10:16.266Z,7.37
2019-04-01T07:14:22.963Z,6.57
2019-04-01T07:18:29.870Z,6.77
2019-04-01T07:22:36.590Z,7.37
2019-04-01T07:26:43.250Z,6.43
2019-04-01T07:30:49.951Z,6.47
2019-04-01T07:34:56.761Z,6.80
2019-04-01T07:39:05.641Z,6.60
2019-04-01T07:43:14.982Z,6.60
2019-04-01T07:47:20.994Z,5.87
2019-04-01T07:51:27.849Z,6.70
2019-04-01T07:55:34.567Z,6.57
2019-04-01T07:59:41.794Z,6.97
2019-04-01T08:03:48.533Z,6.20
2019-04-01T08:07:55.544Z,6.37
2019-04-01T08:12:02.347Z,7.23
2019-04-01T08:16:09.244Z,6.43
2019-04-01T08:20:16.228Z,6.47
2019-04-01T08:24:22.894Z,7.47
2019-04-01T08:28:29.621Z,6.93
2019-04-01T08:32:36.650Z,6.57
2019-04-01T08:36:43.425Z,6.73
2019-04-01T08:40:50.314Z,7.57
2019-04-01T08:44:57.557Z,7.00
2019-04-01T08:49:07.831Z,7.37
2019-04-01T08:53:13.148Z,8.27
2019-04-01T08:57:20.564Z,7.30
2019-04-01T09:01:35.060Z,7.40
2019-04-01T09:05:35.953Z,8.20
2019-04-01T09:09:44.641Z,7.57
2019-04-01T09:13:52.709Z,7.93
2019-04-01T09:17:59.750Z,8.03
2019-04-01T09:22:06.496Z,8.53
2019-04-01T09:26:13.960Z,8.30
2019-04-01T09:30:21.233Z,8.27
2019-04-01T09:34:28.184Z,8.20
2019-04-01T09:38:35.178Z,8.03
2019-04-01T09:42:42.479Z,9.03
2019-04-01T09:46:49.364Z,9.37
2019-04-01T09:50:56.097Z,9.33
2019-04-01T09:55:06.042Z,9.33
2019-04-01T09:59:11.779Z,9.33
2019-04-01T10:03:18.558Z,9.47
2019-04-01T10:07:25.480Z,9.97
2019-04-01T10:11:32.616Z,10.47
2019-04-01T10:15:39.408Z,10.27
2019-04-01T10:19:46.232Z,9.57
2019-04-01T10:23:53.117Z,10.63
2019-04-01T10:28:00.318Z,10.67
2019-04-01T10:32:07.019Z,11.50
2019-04-01T10:36:13.796Z,11.57
2019-04-01T10:40:20.689Z,10.33
2019-04-01T10:44:27.474Z,10.00
2019-04-01T10:48:34.278Z,11.47
2019-04-01T10:52:43.904Z,12.53
2019-04-01T10:56:49.620Z,12.53
2019-04-01T11:00:56.390Z,12.57
2019-04-01T11:05:03.320Z,13.47
2019-04-01T11:09:11.257Z,13.23
2019-04-01T11:13:18.122Z,13.43
2019-04-01T11:17:24.918Z,13.00
2019-04-01T11:21:31.709Z,13.57
2019-04-01T11:25:41.198Z,14.50
2019-04-01T11:29:48.222Z,13.83
2019-04-01T11:33:54.912Z,14.57
2019-04-01T11:38:01.679Z,13.97
2019-04-01T11:42:08.518Z,14.13
2019-04-01T11:46:15.328Z,14.70
2019-04-01T11:50:22.159Z,14.03
2019-04-01T11:54:28.972Z,13.53
2019-04-01T11:58:35.862Z,13.90
2019-04-01T12:02:43.059Z,14.67
2019-04-01T12:06:49.897Z,14.77
2019-04-01T12:10:56.681Z,15.30
2019-04-01T12:15:03.975Z,15.77
2019-04-01T12:19:10.827Z,14.13
2019-04-01T12:23:17.613Z,14.83
2019-04-01T12:27:24.368Z,14.93
2019-04-01T12:31:31.229Z,15.77
2019-04-01T12:35:38.293Z,15.70
2019-04-01T12:39:45.214Z,15.07
2019-04-01T12:43:52.098Z,16.13
2019-04-01T12:47:58.881Z,15.03
2019-04-01T12:52:08.682Z,14.63
2019-04-01T12:56:15.708Z,15.87
2019-04-01T13:00:29.085Z,16.67
2019-04-01T13:04:36.084Z,15.87
2019-04-01T13:08:42.558Z,17.60
2019-04-01T13:12:55.133Z,17.00
2019-04-01T13:17:01.821Z,15.00
2019-04-01T13:21:08.676Z,15.83
2019-04-01T13:25:16.776Z,15.50
2019-04-01T13:29:24.176Z,14.90
2019-04-01T13:33:30.977Z,15.30
2019-04-01T13:37:37.708Z,14.57
2019-04-01T13:41:45.496Z,14.80
2019-04-01T13:45:53.031Z,14.33
2019-04-01T13:50:01.028Z,14.93
2019-04-01T13:54:11.279Z,14.17
2019-04-01T13:58:19.512Z,16.20
2019-04-01T14:02:30.932Z,14.17
2019-04-01T14:06:35.901Z,13.93
2019-04-01T14:10:42.654Z,14.53
2019-04-01T14:14:49.465Z,14.87
2019-04-01T14:18:56.949Z,14.13
2019-04-01T14:23:05.217Z,13.87
2019-04-01T14:27:12.720Z,13.77
2019-04-01T14:31:19.571Z,13.97
2019-04-01T14:35:26.871Z,13.23
2019-04-01T14:39:34.927Z,15.00
2019-04-01T14:43:41.761Z,14.20
2019-04-01T14:47:56.987Z,13.33
2019-04-01T14:51:57.138Z,14.00
2019-04-01T14:56:04.845Z,13.83
2019-04-01T15:00:15.929Z,14.17
2019-04-01T15:04:22.703Z,13.20
2019-04-01T15:08:29.725Z,14.53
2019-04-01T15:12:36.393Z,15.40
2019-04-01T15:16:43.121Z,14.20
2019-04-01T15:20:51.823Z,15.80
2019-04-01T15:24:59.097Z,13.13
2019-04-01T15:29:06.289Z,14.53
2019-04-01T15:33:12.958Z,14.93
2019-04-01T15:37:23.237Z,14.07
2019-04-01T15:41:31.816Z,14.03
2019-04-01T15:45:38.623Z,14.67
2019-04-01T15:49:45.327Z,14.67
2019-04-01T15:53:52.049Z,17.93
2019-04-01T15:57:59.309Z,14.60
2019-04-01T16:02:06.099Z,13.77
2019-04-01T16:06:12.851Z,13.50
2019-04-01T16:10:20.992Z,13.77
2019-04-01T16:14:28.143Z,13.70
2019-04-01T16:18:35.218Z,13.40
2019-04-01T16:22:43.683Z,12.97
2019-04-01T16:26:51.105Z,12.30
2019-04-01T16:31:00.394Z,13.20
2019-04-01T16:35:08.494Z,13.83
2019-04-01T16:39:20.492Z,13.30
2019-04-01T16:43:30.863Z,13.07
2019-04-01T16:47:37.554Z,50.03
2019-04-01T16:51:44.409Z,15.47
2019-04-01T16:55:51.484Z,14.23
2019-04-01T17:00:00.312Z,13.50
2019-04-01T17:04:07.068Z,12.60
2019-04-01T17:08:13.926Z,11.10
2019-04-01T17:12:20.679Z,12.03
2019-04-01T17:16:27.376Z,11.20
2019-04-01T17:20:34.168Z,12.17
2019-04-01T17:24:41.076Z,10.97
2019-04-01T17:28:47.801Z,12.27
2019-04-01T17:32:54.611Z,12.80
2019-04-01T17:37:01.434Z,15.77
2019-04-01T17:41:08.447Z,19.40
2019-04-01T17:45:33.238Z,14.73
2019-04-01T17:49:40.020Z,15.47
2019-04-01T17:53:46.890Z,15.43
2019-04-01T17:57:54.687Z,15.40
2019-04-01T18:02:01.391Z,16.27
2019-04-01T18:06:08.151Z,15.90
2019-04-01T18:10:16.133Z,15.87
2019-04-01T18:14:22.907Z,13.77
2019-04-01T18:18:29.855Z,13.73
2019-04-01T18:22:36.620Z,14.30
2019-04-01T18:26:45.951Z,14.37
2019-04-01T18:30:53.036Z,14.50
2019-04-01T18:34:59.754Z,14.23
2019-04-01T18:39:09.299Z,12.70
2019-04-01T18:43:16.005Z,11.57
2019-04-01T18:47:22.795Z,12.03
2019-04-01T18:51:30.545Z,11.50
2019-04-01T18:55:37.310Z,10.87
2019-04-01T18:59:44.228Z,10.13
2019-04-01T19:03:51.048Z,9.87
2019-04-01T19:07:57.751Z,9.40
2019-04-01T19:12:04.855Z,9.97
2019-04-01T19:16:16.211Z,9.47
2019-04-01T19:20:21.178Z,11.33
2019-04-01T19:24:28.414Z,9.17
2019-04-01T19:28:35.382Z,9.70
2019-04-01T19:32:44.608Z,9.30
2019-04-01T19:36:51.710Z,8.20
2019-04-01T19:40:59.919Z,8.97
2019-04-01T19:45:07.854Z,9.03
2019-04-01T19:49:15.325Z,9.57
2019-04-01T19:53:24.169Z,9.40
2019-04-01T19:57:35.728Z,9.80
2019-04-01T20:01:42.255Z,9.20
2019-04-01T20:05:49.939Z,9.83
2019-04-01T20:09:57.110Z,9.83
2019-04-01T20:14:04.330Z,10.47
2019-04-01T20:18:11.321Z,10.93
2019-04-01T20:22:18.132Z,9.47
2019-04-01T20:26:24.941Z,10.33
2019-04-01T20:30:31.735Z,9.77
2019-04-01T20:34:38.514Z,9.20
2019-04-01T20:38:45.217Z,9.37
2019-04-01T20:42:51.917Z,9.80
2019-04-01T20:46:58.665Z,9.50
2019-04-01T20:51:05.532Z,9.70
2019-04-01T20:55:13.498Z,11.27
2019-04-01T20:59:20.833Z,10.60
2019-04-01T21:03:27.628Z,9.90
2019-04-01T21:07:34.471Z,9.33
2019-04-01T21:11:41.171Z,10.50
2019-04-01T21:15:48.537Z,10.10
2019-04-01T21:19:55.389Z,10.77
2019-04-01T21:24:02.243Z,10.07
2019-04-01T21:28:11.959Z,11.37
2019-04-01T21:32:21.688Z,10.73
2019-04-01T21:36:28.419Z,9.90
2019-04-01T21:40:35.368Z,10.53
2019-04-01T21:44:42.146Z,12.17
2019-04-01T21:48:48.876Z,12.27
2019-04-01T21:52:55.664Z,11.50
2019-04-01T21:57:02.600Z,11.77
2019-04-01T22:01:09.582Z,11.67
2019-04-01T22:05:16.583Z,11.57
2019-04-01T22:09:23.415Z,11.07
2019-04-01T22:13:30.204Z,11.67
2019-04-01T22:17:36.930Z,11.87
2019-04-01T22:21:43.685Z,12.67
2019-04-01T22:25:50.440Z,11.57
2019-04-01T22:29:57.366Z,11.47
2019-04-01T22:34:04.077Z,12.00
2019-04-01T22:38:10.825Z,11.67
2019-04-01T22:42:17.815Z,11.93
2019-04-01T22:46:24.542Z,10.93
2019-04-01T22:50:31.285Z,11.43
2019-04-01T22:54:38.186Z,12.00
2019-04-01T22:58:44.875Z,11.53
2019-04-01T23:02:51.606Z,11.10
2019-04-01T23:06:58.383Z,12.63
2019-04-01T23:11:05.158Z,11.60
2019-04-01T23:15:12.192Z,12.27
2019-04-01T23:19:18.913Z,10.87
2019-04-01T23:23:25.604Z,11.33
2019-04-01T23:27:36.158Z,12.37
2019-04-01T23:31:42.977Z,12.00
2019-04-01T23:35:49.802Z,11.93
2019-04-01T23:39:56.513Z,11.50
2019-04-01T23:44:03.278Z,11.30
2019-04-01T23:48:11.471Z,11.77
2019-04-01T23:52:18.155Z,11.70
2019-04-01T23:56:24.880Z,11.23
